createdAt,value
2022-08-21T00:01:51.556Z,5.57
2022-08-21T00:04:22.264Z,6.97
2022-08-21T00:06:50.762Z,6.20
2022-08-21T00:09:18.421Z,5.60
2022-08-21T00:11:45.797Z,5.60
2022-08-21T00:14:14.072Z,6.50
2022-08-21T00:16:42.018Z,6.37
2022-08-21T00:19:09.399Z,6.70
2022-08-21T00:21:37.223Z,6.20
2022-08-21T00:24:04.544Z,5.70
2022-08-21T00:26:31.534Z,6.30
2022-08-21T00:28:59.021Z,5.80
2022-08-21T00:31:26.413Z,6.50
2022-08-21T00:33:54.367Z,6.20
2022-08-21T00:36:27.826Z,6.73
2022-08-21T00:38:54.767Z,7.40
2022-08-21T00:41:38.259Z,6.40
2022-08-21T00:44:13.927Z,6.50
2022-08-21T00:46:41.607Z,6.50
2022-08-21T00:49:09.262Z,6.87
2022-08-21T00:51:48.012Z,6.23
2022-08-21T00:54:18.498Z,7.77
2022-08-21T00:56:49.086Z,6.83
2022-08-21T00:59:18.828Z,6.77
2022-08-21T01:01:46.056Z,8.30
2022-08-21T01:04:13.698Z,8.30
2022-08-21T01:06:40.767Z,7.80
2022-08-21T01:09:07.752Z,8.20
2022-08-21T01:11:35.352Z,8.43
2022-08-21T01:14:02.979Z,7.33
2022-08-21T01:16:30.232Z,8.30
2022-08-21T01:18:59.138Z,8.70
2022-08-21T01:21:28.695Z,9.33
2022-08-21T01:23:57.823Z,9.53
2022-08-21T01:26:31.207Z,9.07
2022-08-21T01:29:49.265Z,9.10
2022-08-21T01:32:19.139Z,9.77
2022-08-21T01:34:48.213Z,10.10
2022-08-21T01:37:16.177Z,8.73
2022-08-21T01:39:45.905Z,9.63
2022-08-21T01:42:13.988Z,9.53
2022-08-21T01:44:41.564Z,9.60
2022-08-21T01:47:11.559Z,9.93
2022-08-21T01:49:39.704Z,9.80
2022-08-21T01:52:09.521Z,9.40
2022-08-21T01:54:37.690Z,9.63
2022-08-21T01:57:06.014Z,8.73
2022-08-21T01:59:33.634Z,8.80
2022-08-21T02:02:00.554Z,8.10
2022-08-21T02:04:27.813Z,9.47
2022-08-21T02:06:54.665Z,9.60
2022-08-21T02:09:22.705Z,9.60
2022-08-21T02:11:52.267Z,8.47
2022-08-21T02:14:27.149Z,7.43
2022-08-21T02:17:05.392Z,7.80
2022-08-21T02:19:40.241Z,8.27
2022-08-21T02:22:11.928Z,8.00
2022-08-21T02:24:53.754Z,8.67
2022-08-21T02:27:26.068Z,7.87
2022-08-21T02:29:56.281Z,9.03
2022-08-21T02:32:23.167Z,8.63
2022-08-21T02:34:50.848Z,7.70
2022-08-21T02:37:17.822Z,9.13
2022-08-21T02:39:44.782Z,8.53
2022-08-21T02:42:11.669Z,8.70
2022-08-21T02:44:38.567Z,9.50
2022-08-21T02:47:05.836Z,10.10
2022-08-21T02:49:32.786Z,9.97
2022-08-21T02:52:00.186Z,8.77
2022-08-21T02:54:27.086Z,9.40
2022-08-21T02:56:54.019Z,10.07
2022-08-21T02:59:20.937Z,9.83
2022-08-21T03:01:47.987Z,10.40
2022-08-21T03:04:14.984Z,9.70
2022-08-21T03:06:41.894Z,8.97
2022-08-21T03:09:08.788Z,10.30
2022-08-21T03:11:37.917Z,9.40
2022-08-21T03:14:07.270Z,10.00
2022-08-21T03:16:35.286Z,9.60
2022-08-21T03:19:03.244Z,10.10
2022-08-21T03:21:30.283Z,10.47
2022-08-21T03:23:57.195Z,10.10
2022-08-21T03:26:25.292Z,11.30
2022-08-21T03:28:52.436Z,10.40
2022-08-21T03:31:19.418Z,10.70
2022-08-21T03:33:46.411Z,11.50
2022-08-21T03:36:13.467Z,10.97
2022-08-21T03:38:41.015Z,11.47
2022-08-21T03:41:08.787Z,12.33
2022-08-21T03:43:36.587Z,11.50
2022-08-21T03:46:04.791Z,12.53
2022-08-21T03:48:32.454Z,13.10
2022-08-21T03:50:59.565Z,13.27
2022-08-21T03:53:26.811Z,12.97
2022-08-21T03:55:54.340Z,12.60
2022-08-21T03:58:24.389Z,13.47
2022-08-21T04:00:53.460Z,13.07
2022-08-21T04:03:20.909Z,14.33
2022-08-21T04:05:47.925Z,14.33
2022-08-21T04:08:18.310Z,12.60
2022-08-21T04:10:47.378Z,14.73
2022-08-21T04:13:15.815Z,14.97
2022-08-21T04:15:42.980Z,13.97
2022-08-21T04:18:11.572Z,14.70
2022-08-21T04:20:39.229Z,14.73
2022-08-21T04:23:06.118Z,14.37
2022-08-21T04:25:34.148Z,14.93
2022-08-21T04:28:04.765Z,15.20
2022-08-21T04:30:32.224Z,16.63
2022-08-21T04:32:59.831Z,14.67
2022-08-21T04:35:28.850Z,13.77
2022-08-21T04:37:56.232Z,16.47
2022-08-21T04:40:25.748Z,15.20
2022-08-21T04:43:00.241Z,15.03
2022-08-21T04:45:36.147Z,16.37
2022-08-21T04:48:09.588Z,15.90
2022-08-21T04:51:19.463Z,18.03
2022-08-21T04:53:55.009Z,17.93
2022-08-21T04:56:29.576Z,16.70
2022-08-21T04:58:59.388Z,16.60
2022-08-21T05:01:30.159Z,15.93
2022-08-21T05:04:00.534Z,15.13
2022-08-21T05:06:31.585Z,15.10
2022-08-21T05:09:01.964Z,14.43
2022-08-21T05:11:31.438Z,12.63
2022-08-21T05:13:58.757Z,12.63
2022-08-21T05:16:36.821Z,12.73
2022-08-21T05:19:08.350Z,12.17
2022-08-21T05:21:36.633Z,11.37
2022-08-21T05:24:03.949Z,10.50
2022-08-21T05:26:31.338Z,9.97
2022-08-21T05:28:58.218Z,10.10
2022-08-21T05:31:25.580Z,9.33
2022-08-21T05:33:52.490Z,9.97
2022-08-21T05:36:20.188Z,9.00
2022-08-21T05:38:47.692Z,8.70
2022-08-21T05:41:14.581Z,8.87
2022-08-21T05:43:41.482Z,8.00
2022-08-21T05:46:09.458Z,8.20
2022-08-21T05:48:37.257Z,8.10
2022-08-21T05:51:09.563Z,7.67
2022-08-21T05:53:38.032Z,8.30
2022-08-21T05:56:06.160Z,6.87
2022-08-21T05:58:34.619Z,7.33
2022-08-21T06:01:03.468Z,6.93
2022-08-21T06:03:32.949Z,6.70
2022-08-21T06:05:59.938Z,6.90
2022-08-21T06:08:27.944Z,6.90
2022-08-21T06:10:56.802Z,6.40
2022-08-21T06:13:24.739Z,5.80
2022-08-21T06:16:01.615Z,7.67
2022-08-21T06:18:28.581Z,6.67
2022-08-21T06:20:55.483Z,5.50
2022-08-21T06:23:33.363Z,6.07
2022-08-21T06:26:01.708Z,6.17
2022-08-21T06:28:28.807Z,6.00
2022-08-21T06:30:55.931Z,5.43
2022-08-21T06:33:22.972Z,5.90
2022-08-21T06:35:49.886Z,4.63
2022-08-21T06:38:16.865Z,5.50
2022-08-21T06:40:47.190Z,5.30
2022-08-21T06:43:17.131Z,5.40
2022-08-21T06:45:44.790Z,5.40
2022-08-21T06:48:15.624Z,5.00
2022-08-21T06:50:45.466Z,5.00
2022-08-21T06:53:13.973Z,4.73
2022-08-21T06:55:43.050Z,4.60
2022-08-21T06:58:11.124Z,4.50
2022-08-21T07:00:41.916Z,5.33
2022-08-21T07:03:17.195Z,4.30
2022-08-21T07:05:44.097Z,4.30
2022-08-21T07:08:11.009Z,4.60
2022-08-21T07:10:37.932Z,3.23
2022-08-21T07:13:04.960Z,3.63
2022-08-21T07:15:33.643Z,4.70
2022-08-21T07:18:01.029Z,4.10
2022-08-21T07:20:29.204Z,3.60
2022-08-21T07:22:58.586Z,3.80
2022-08-21T07:25:25.591Z,3.90
2022-08-21T07:27:52.645Z,4.00
2022-08-21T07:30:19.902Z,3.10
2022-08-21T07:32:46.896Z,3.77
2022-08-21T07:35:14.025Z,3.90
2022-08-21T07:37:40.882Z,3.50
2022-08-21T07:40:08.968Z,3.90
2022-08-21T07:42:42.234Z,3.40
2022-08-21T07:45:10.409Z,3.63
2022-08-21T07:47:42.433Z,4.00
2022-08-21T07:50:12.468Z,4.57
2022-08-21T07:52:40.522Z,4.57
2022-08-21T07:55:09.902Z,3.65
2022-08-21T07:57:36.913Z,3.90
2022-08-21T08:00:09.912Z,3.85
2022-08-21T08:02:36.942Z,3.95
2022-08-21T08:05:12.125Z,4.15
2022-08-21T08:07:39.690Z,3.88
2022-08-21T08:10:08.545Z,3.47
2022-08-21T08:12:39.987Z,3.70
2022-08-21T08:15:09.486Z,3.42
2022-08-21T08:17:37.138Z,4.75
2022-08-21T08:20:04.773Z,3.97
2022-08-21T08:22:31.788Z,3.75
2022-08-21T08:24:58.933Z,3.38
2022-08-21T08:27:25.997Z,5.18
2022-08-21T08:29:52.981Z,4.65
2022-08-21T08:32:21.051Z,3.90
2022-08-21T08:34:49.769Z,4.90
2022-08-21T08:37:17.400Z,3.40
2022-08-21T08:39:44.981Z,3.88
2022-08-21T08:42:34.262Z,3.97
2022-08-21T08:45:14.202Z,3.80
2022-08-21T08:47:45.623Z,4.63
2022-08-21T08:50:19.347Z,4.10
2022-08-21T08:52:55.222Z,4.35
2022-08-21T08:55:33.229Z,3.80
2022-08-21T08:58:00.537Z,4.72
2022-08-21T09:00:27.574Z,3.78
2022-08-21T09:02:59.634Z,3.60
2022-08-21T09:05:28.744Z,4.07
2022-08-21T09:07:55.592Z,3.70
2022-08-21T09:10:47.831Z,3.50
2022-08-21T09:13:28.823Z,3.22
2022-08-21T09:16:27.056Z,2.45
2022-08-21T09:19:27.318Z,2.58
2022-08-21T09:22:15.239Z,3.03
2022-08-21T09:25:15.450Z,1.92
2022-08-21T09:27:42.880Z,2.40
2022-08-21T09:30:12.406Z,3.53
2022-08-21T09:32:40.339Z,2.50
2022-08-21T09:35:12.626Z,2.65
2022-08-21T09:38:25.278Z,2.97
2022-08-21T09:41:04.635Z,2.77
2022-08-21T09:43:32.393Z,3.03
2022-08-21T09:46:13.152Z,3.20
2022-08-21T09:49:06.957Z,2.67
2022-08-21T09:51:53.100Z,2.30
2022-08-21T09:54:27.411Z,2.53
2022-08-21T09:57:24.906Z,2.80
2022-08-21T09:59:52.141Z,3.03
2022-08-21T10:02:47.980Z,2.97
2022-08-21T10:05:21.198Z,1.92
2022-08-21T10:07:49.340Z,2.05
2022-08-21T10:10:25.616Z,2.08
2022-08-21T10:13:18.186Z,2.20
2022-08-21T10:16:17.301Z,1.70
2022-08-21T10:19:27.128Z,1.55
2022-08-21T10:22:02.185Z,2.03
2022-08-21T10:24:57.143Z,2.00
2022-08-21T10:27:50.862Z,1.45
2022-08-21T10:30:52.325Z,1.85
2022-08-21T10:33:44.098Z,1.85
2022-08-21T10:36:27.654Z,1.50
2022-08-21T10:39:23.691Z,1.90
2022-08-21T10:42:19.035Z,1.60
2022-08-21T10:45:30.503Z,1.50
2022-08-21T10:48:05.060Z,1.55
2022-08-21T10:50:55.448Z,1.20
2022-08-21T10:53:42.908Z,1.30
2022-08-21T10:56:28.016Z,1.30
2022-08-21T10:59:25.376Z,1.60
2022-08-21T11:02:12.567Z,1.90
2022-08-21T11:05:12.106Z,1.42
2022-08-21T11:08:05.038Z,1.40
2022-08-21T11:10:57.851Z,0.93
2022-08-21T11:13:48.198Z,1.55
2022-08-21T11:16:47.799Z,1.17
2022-08-21T11:19:29.023Z,0.93
2022-08-21T11:22:14.559Z,1.45
2022-08-21T11:25:09.932Z,1.30
2022-08-21T11:27:56.268Z,1.20
2022-08-21T11:30:29.580Z,0.80
2022-08-21T11:33:11.209Z,1.00
2022-08-21T11:35:52.731Z,1.45
2022-08-21T11:38:41.422Z,1.20
2022-08-21T11:41:33.705Z,1.00
2022-08-21T11:44:39.439Z,1.35
2022-08-21T11:47:52.061Z,1.10
2022-08-21T11:50:35.716Z,1.50
2022-08-21T11:53:15.751Z,1.23
2022-08-21T11:55:59.305Z,1.40
2022-08-21T11:58:50.150Z,1.33
2022-08-21T12:01:25.321Z,1.08
2022-08-21T12:04:10.745Z,0.90
2022-08-21T12:06:41.404Z,1.05
2022-08-21T12:09:30.898Z,0.73
2022-08-21T12:12:35.192Z,1.00
2022-08-21T12:15:21.169Z,1.10
2022-08-21T12:18:22.084Z,1.00
2022-08-21T12:21:21.240Z,1.10
2022-08-21T12:24:04.150Z,0.93
2022-08-21T12:26:49.771Z,0.98
2022-08-21T12:29:32.711Z,0.95
2022-08-21T12:32:20.157Z,0.70
2022-08-21T12:34:56.266Z,0.98
2022-08-21T12:37:31.058Z,1.20
2022-08-21T12:40:01.839Z,0.75
2022-08-21T12:42:56.598Z,0.75
2022-08-21T12:45:42.745Z,0.60
2022-08-21T12:48:34.126Z,0.80
2022-08-21T12:51:32.293Z,0.60
2022-08-21T12:54:00.796Z,0.65
2022-08-21T12:56:33.632Z,0.50
2022-08-21T12:59:11.984Z,0.60
2022-08-21T13:01:52.656Z,1.33
2022-08-21T13:04:37.388Z,0.70
2022-08-21T13:07:08.536Z,0.77
2022-08-21T13:09:35.524Z,0.60
2022-08-21T13:12:02.621Z,0.65
2022-08-21T13:14:38.413Z,0.60
2022-08-21T13:17:14.083Z,0.70
2022-08-21T13:19:59.479Z,0.63
2022-08-21T13:22:33.287Z,0.68
2022-08-21T13:25:05.896Z,1.40
2022-08-21T13:27:35.457Z,0.70
2022-08-21T13:30:15.586Z,1.35
2022-08-21T13:32:47.177Z,0.57
2022-08-21T13:35:22.034Z,0.88
2022-08-21T13:37:52.816Z,0.70
2022-08-21T13:41:02.975Z,0.73
2022-08-21T13:43:34.028Z,0.70
2022-08-21T13:46:02.237Z,0.95
2022-08-21T13:48:34.065Z,1.13
2022-08-21T13:51:01.944Z,0.60
2022-08-21T13:53:32.806Z,0.80
2022-08-21T13:56:01.491Z,0.80
2022-08-21T13:58:29.774Z,0.60
2022-08-21T14:00:58.997Z,0.68
2022-08-21T14:03:39.285Z,0.50
2022-08-21T14:06:22.217Z,0.60
2022-08-21T14:08:56.300Z,0.73
2022-08-21T14:11:24.235Z,1.02
2022-08-21T14:13:59.139Z,0.90
2022-08-21T14:16:29.970Z,0.90
2022-08-21T14:19:25.270Z,1.17
2022-08-21T14:21:52.461Z,0.70
2022-08-21T14:24:30.773Z,0.80
2022-08-21T14:27:08.539Z,0.70
2022-08-21T14:29:42.103Z,1.03
2022-08-21T14:32:21.624Z,0.70
2022-08-21T14:34:51.917Z,0.60
2022-08-21T14:37:19.328Z,0.60
2022-08-21T14:39:46.679Z,0.97
2022-08-21T14:42:14.077Z,0.70
2022-08-21T14:44:41.008Z,0.77
2022-08-21T14:47:09.485Z,1.00
2022-08-21T14:49:36.518Z,0.90
2022-08-21T14:52:03.825Z,1.13
2022-08-21T14:54:32.672Z,1.03
2022-08-21T14:57:06.217Z,1.10
2022-08-21T14:59:34.275Z,1.20
2022-08-21T15:02:01.952Z,0.73
2022-08-21T15:04:29.152Z,1.60
2022-08-21T15:06:56.375Z,1.30
2022-08-21T15:09:23.492Z,1.20
2022-08-21T15:11:50.806Z,1.27
2022-08-21T15:14:24.808Z,1.10
2022-08-21T15:16:52.776Z,1.23
2022-08-21T15:19:19.848Z,1.13
2022-08-21T15:21:46.878Z,1.37
2022-08-21T15:24:13.843Z,1.10
2022-08-21T15:26:40.787Z,1.17
2022-08-21T15:29:08.980Z,0.83
2022-08-21T15:31:37.427Z,1.40
2022-08-21T15:34:04.867Z,1.60
2022-08-21T15:36:31.796Z,1.13
2022-08-21T15:38:58.843Z,1.70
2022-08-21T15:41:25.846Z,2.47
2022-08-21T15:43:54.274Z,1.10
2022-08-21T15:46:22.326Z,1.40
2022-08-21T15:48:49.569Z,1.50
2022-08-21T15:51:17.847Z,1.33
2022-08-21T15:53:45.698Z,1.70
2022-08-21T15:56:37.937Z,1.87
2022-08-21T15:59:17.972Z,1.33
2022-08-21T16:01:46.149Z,1.00
2022-08-21T16:04:26.928Z,1.30
2022-08-21T16:06:59.857Z,1.00
2022-08-21T16:09:30.881Z,1.47
2022-08-21T16:11:59.223Z,0.80
2022-08-21T16:14:26.496Z,1.27
2022-08-21T16:16:54.468Z,1.20
2022-08-21T16:19:21.958Z,0.80
2022-08-21T16:21:48.981Z,0.90
2022-08-21T16:24:15.864Z,0.90
2022-08-21T16:26:43.270Z,1.00
2022-08-21T16:29:11.050Z,0.90
2022-08-21T16:31:38.149Z,0.80
2022-08-21T16:34:05.158Z,1.10
2022-08-21T16:36:32.222Z,0.90
2022-08-21T16:39:00.916Z,0.90
2022-08-21T16:41:34.566Z,1.20
2022-08-21T16:44:02.695Z,0.70
2022-08-21T16:46:36.742Z,0.90
2022-08-21T16:49:04.607Z,1.00
2022-08-21T16:51:31.735Z,1.00
2022-08-21T16:53:59.655Z,1.13
2022-08-21T16:56:27.166Z,1.30
2022-08-21T16:58:55.871Z,1.43
2022-08-21T17:01:26.616Z,1.40
2022-08-21T17:03:54.078Z,1.40
2022-08-21T17:06:23.654Z,1.20
2022-08-21T17:08:56.615Z,1.03
2022-08-21T17:11:37.879Z,1.30
2022-08-21T17:14:19.645Z,1.40
2022-08-21T17:16:49.751Z,1.70
2022-08-21T17:19:17.631Z,1.40
2022-08-21T17:21:44.738Z,1.00
2022-08-21T17:24:15.564Z,1.73
2022-08-21T17:26:44.043Z,1.40
2022-08-21T17:29:14.643Z,1.27
2022-08-21T17:31:43.854Z,1.20
2022-08-21T17:34:11.636Z,1.00
2022-08-21T17:36:38.809Z,1.30
2022-08-21T17:39:06.010Z,1.50
2022-08-21T17:41:33.837Z,1.63
2022-08-21T17:44:07.192Z,1.17
2022-08-21T17:46:34.407Z,0.90
2022-08-21T17:49:01.708Z,0.90
2022-08-21T17:51:28.804Z,1.73
2022-08-21T17:53:55.908Z,3.97
2022-08-21T17:56:24.774Z,2.43
2022-08-21T17:58:52.168Z,1.40
2022-08-21T18:01:20.404Z,1.50
2022-08-21T18:03:47.831Z,1.27
2022-08-21T18:06:17.910Z,1.23
2022-08-21T18:08:46.103Z,1.70
2022-08-21T18:11:23.043Z,1.27
2022-08-21T18:13:51.795Z,1.23
2022-08-21T18:16:19.603Z,1.00
2022-08-21T18:18:51.955Z,1.40
2022-08-21T18:21:19.242Z,1.00
2022-08-21T18:23:46.596Z,1.10
2022-08-21T18:26:16.211Z,1.03
2022-08-21T18:28:44.370Z,1.40
2022-08-21T18:31:12.413Z,1.30
2022-08-21T18:33:41.404Z,1.00
2022-08-21T18:36:24.530Z,1.70
2022-08-21T18:38:52.879Z,0.80
2022-08-21T18:41:19.799Z,1.33
2022-08-21T18:43:46.860Z,1.00
2022-08-21T18:46:15.787Z,1.43
2022-08-21T18:48:43.939Z,1.20
2022-08-21T18:51:12.353Z,1.40
2022-08-21T18:53:39.619Z,1.20
2022-08-21T18:56:15.595Z,1.37
2022-08-21T18:58:44.394Z,1.50
2022-08-21T19:01:11.871Z,1.43
2022-08-21T19:03:38.862Z,1.20
2022-08-21T19:06:06.288Z,1.30
2022-08-21T19:08:36.845Z,1.23
2022-08-21T19:11:06.619Z,1.20
2022-08-21T19:13:34.501Z,1.50
2022-08-21T19:16:05.280Z,1.30
2022-08-21T19:18:35.506Z,1.60
2022-08-21T19:21:03.355Z,2.60
2022-08-21T19:23:31.167Z,2.00
2022-08-21T19:26:04.151Z,1.90
2022-08-21T19:28:37.278Z,2.20
2022-08-21T19:31:23.642Z,1.93
2022-08-21T19:33:58.978Z,1.80
2022-08-21T19:36:29.285Z,1.90
2022-08-21T19:38:56.537Z,2.00
2022-08-21T19:41:26.470Z,1.90
2022-08-21T19:43:57.318Z,1.43
2022-08-21T19:46:28.086Z,1.93
2022-08-21T19:48:56.478Z,2.20
2022-08-21T19:51:25.109Z,2.47
2022-08-21T19:53:57.294Z,2.47
2022-08-21T19:56:27.879Z,1.30
2022-08-21T19:58:56.769Z,1.93
2022-08-21T20:01:26.326Z,2.40
2022-08-21T20:03:54.803Z,2.17
2022-08-21T20:06:25.708Z,2.70
2022-08-21T20:08:54.979Z,2.67
2022-08-21T20:11:36.049Z,2.63
2022-08-21T20:14:04.172Z,2.20
2022-08-21T20:16:31.416Z,2.27
2022-08-21T20:18:59.294Z,2.23
2022-08-21T20:21:26.537Z,1.90
2022-08-21T20:23:53.433Z,2.20
2022-08-21T20:26:21.155Z,2.23
2022-08-21T20:28:50.504Z,1.90
2022-08-21T20:31:19.594Z,2.10
2022-08-21T20:33:49.544Z,2.57
2022-08-21T20:36:17.274Z,2.50
2022-08-21T20:38:44.803Z,2.57
2022-08-21T20:41:21.048Z,2.03
2022-08-21T20:43:58.571Z,2.60
2022-08-21T20:46:28.300Z,2.50
2022-08-21T20:48:55.617Z,2.20
2022-08-21T20:51:34.559Z,2.60
2022-08-21T20:54:27.514Z,3.13
2022-08-21T20:57:30.712Z,3.70
2022-08-21T20:59:59.803Z,3.20
2022-08-21T21:03:15.979Z,3.30
2022-08-21T21:05:55.024Z,3.10
2022-08-21T21:08:46.665Z,3.00
2022-08-21T21:11:50.150Z,3.43
2022-08-21T21:14:27.025Z,2.63
2022-08-21T21:16:58.916Z,3.10
2022-08-21T21:19:46.516Z,2.87
2022-08-21T21:22:38.426Z,2.27
2022-08-21T21:25:22.497Z,2.70
2022-08-21T21:27:57.747Z,2.60
2022-08-21T21:30:41.345Z,4.57
2022-08-21T21:33:16.453Z,2.73
2022-08-21T21:35:59.100Z,2.97
2022-08-21T21:38:35.426Z,2.73
2022-08-21T21:41:30.210Z,2.90
2022-08-21T21:47:47.433Z,2.73
2022-08-21T21:50:42.618Z,3.37
2022-08-21T21:53:30.084Z,3.40
2022-08-21T21:56:40.820Z,3.13
2022-08-21T21:59:54.214Z,2.90
2022-08-21T22:02:23.645Z,2.70
2022-08-21T22:05:07.107Z,2.90
2022-08-21T22:07:59.836Z,2.87
2022-08-21T22:10:43.147Z,2.70
2022-08-21T22:13:26.675Z,3.60
2022-08-21T22:15:55.234Z,2.97
2022-08-21T22:18:26.756Z,3.10
2022-08-21T22:21:35.127Z,3.23
2022-08-21T22:24:27.541Z,2.77
2022-08-21T22:27:19.139Z,3.37
2022-08-21T22:29:59.200Z,2.83
2022-08-21T22:32:50.242Z,2.97
2022-08-21T22:35:26.619Z,2.63
2022-08-21T22:37:58.521Z,3.50
2022-08-21T22:40:32.207Z,3.87
2022-08-21T22:43:14.766Z,3.77
2022-08-21T22:46:05.873Z,4.60
2022-08-21T22:48:37.273Z,4.37
2022-08-21T22:51:30.076Z,4.00
2022-08-21T22:54:00.217Z,3.20
2022-08-21T22:56:45.296Z,3.90
2022-08-21T22:59:41.740Z,4.40
2022-08-21T23:02:30.140Z,4.10
2022-08-21T23:04:59.916Z,4.60
2022-08-21T23:07:42.869Z,4.70
2022-08-21T23:10:32.659Z,4.90
2022-08-21T23:13:13.182Z,4.17
2022-08-21T23:16:25.071Z,4.73
2022-08-21T23:19:38.141Z,5.70
2022-08-21T23:22:31.991Z,5.20
2022-08-21T23:25:41.931Z,5.83
2022-08-21T23:28:48.442Z,6.27
2022-08-21T23:31:54.790Z,6.80
2022-08-21T23:34:52.556Z,6.30
2022-08-21T23:38:02.529Z,5.97
2022-08-21T23:43:59.693Z,4.83
2022-08-21T23:47:16.302Z,5.97
2022-08-21T23:50:05.667Z,6.33
2022-08-21T23:52:53.469Z,5.50
2022-08-21T23:55:43.721Z,5.47
2022-08-21T23:58:50.776Z,5.50
